Jonesboro, Texas
Current Conditions -  °F | °C
As of 8:15 AM on Saturday 25 Oct 2014 (Local Time) from KGOP Reporting Station
Clear Clear  
Wind Chill: 16°   Ceiling: Unl
Heat Index: 16°   Visibility: 9mi
Dew Point: 14°   Wind: 3mph
Humidity: 88%   Direction: 130°SE
Pressure: 30.17"   Gusts: NA
Location:  31.61°N, 97.88°W
Report Text: KGOP 251315Z AUTO 13003KT 9SM CLR 16/14 A3017 RMK AO2
Loading
Personal Weather Stations






























Interactive Weather Map
Tropical Storm Tracking
New forecast layout! Learn more

10-Day Weather Forecast

Advertisements
Track Severe Weather on mobile